sensor_id;sensor_type;location;lat;lon;timestamp;temperature;humidity
70762;DHT22;58360;0.000;0.000;2023-04-03T00:01:09;3.90;93.70
70762;DHT22;58360;0.000;0.000;2023-04-03T00:03:35;4.00;93.20
70762;DHT22;58360;0.000;0.000;2023-04-03T00:06:02;4.00;93.10
70762;DHT22;58360;0.000;0.000;2023-04-03T00:08:28;4.00;93.20
70762;DHT22;58360;0.000;0.000;2023-04-03T00:10:56;4.00;93.40
70762;DHT22;58360;0.000;0.000;2023-04-03T00:13:23;4.00;92.70
70762;DHT22;58360;0.000;0.000;2023-04-03T00:15:48;4.10;91.90
70762;DHT22;58360;0.000;0.000;2023-04-03T00:18:14;4.10;91.60
70762;DHT22;58360;0.000;0.000;2023-04-03T00:20:40;4.10;91.30
70762;DHT22;58360;0.000;0.000;2023-04-03T00:23:06;4.20;91.20
70762;DHT22;58360;0.000;0.000;2023-04-03T00:25:32;4.30;91.30
70762;DHT22;58360;0.000;0.000;2023-04-03T00:27:58;4.20;91.80
70762;DHT22;58360;0.000;0.000;2023-04-03T00:30:24;4.10;92.30
70762;DHT22;58360;0.000;0.000;2023-04-03T00:32:51;4.00;92.20
70762;DHT22;58360;0.000;0.000;2023-04-03T00:35:18;4.10;92.00
70762;DHT22;58360;0.000;0.000;2023-04-03T00:37:44;4.10;91.70
70762;DHT22;58360;0.000;0.000;2023-04-03T00:40:12;4.10;91.60
70762;DHT22;58360;0.000;0.000;2023-04-03T00:42:40;4.00;91.90
70762;DHT22;58360;0.000;0.000;2023-04-03T00:47:32;4.00;91.80
70762;DHT22;58360;0.000;0.000;2023-04-03T00:49:58;4.10;91.30
70762;DHT22;58360;0.000;0.000;2023-04-03T00:52:28;4.10;91.40
70762;DHT22;58360;0.000;0.000;2023-04-03T00:54:58;4.10;91.30
70762;DHT22;58360;0.000;0.000;2023-04-03T00:57:25;4.00;91.60
70762;DHT22;58360;0.000;0.000;2023-04-03T00:59:55;3.90;91.60
70762;DHT22;58360;0.000;0.000;2023-04-03T01:02:22;3.90;91.70
70762;DHT22;58360;0.000;0.000;2023-04-03T01:04:47;3.80;91.70
70762;DHT22;58360;0.000;0.000;2023-04-03T01:07:26;3.80;91.50
70762;DHT22;58360;0.000;0.000;2023-04-03T01:09:57;3.80;91.60
70762;DHT22;58360;0.000;0.000;2023-04-03T01:12:29;3.70;91.90
70762;DHT22;58360;0.000;0.000;2023-04-03T01:14:58;3.80;91.70
70762;DHT22;58360;0.000;0.000;2023-04-03T01:25:41;3.80;91.40
70762;DHT22;58360;0.000;0.000;2023-04-03T01:28:19;3.80;91.70
70762;DHT22;58360;0.000;0.000;2023-04-03T01:33:33;3.90;91.30
70762;DHT22;58360;0.000;0.000;2023-04-03T01:35:59;3.80;91.30
70762;DHT22;58360;0.000;0.000;2023-04-03T01:38:24;3.90;91.30
70762;DHT22;58360;0.000;0.000;2023-04-03T01:40:50;4.00;91.10
70762;DHT22;58360;0.000;0.000;2023-04-03T01:43:16;4.00;91.00
70762;DHT22;58360;0.000;0.000;2023-04-03T01:45:42;4.00;91.00
70762;DHT22;58360;0.000;0.000;2023-04-03T01:48:08;3.90;91.10
70762;DHT22;58360;0.000;0.000;2023-04-03T01:50:33;4.00;91.00
70762;DHT22;58360;0.000;0.000;2023-04-03T01:52:59;3.90;91.10
70762;DHT22;58360;0.000;0.000;2023-04-03T01:55:25;4.00;90.90
70762;DHT22;58360;0.000;0.000;2023-04-03T01:57:50;3.90;90.90
70762;DHT22;58360;0.000;0.000;2023-04-03T02:00:16;3.80;91.20
70762;DHT22;58360;0.000;0.000;2023-04-03T02:02:42;3.80;91.40
70762;DHT22;58360;0.000;0.000;2023-04-03T02:05:08;3.70;91.70
70762;DHT22;58360;0.000;0.000;2023-04-03T02:07:34;3.60;91.80
70762;DHT22;58360;0.000;0.000;2023-04-03T02:09:59;3.50;92.10
70762;DHT22;58360;0.000;0.000;2023-04-03T02:12:29;3.50;92.30
70762;DHT22;58360;0.000;0.000;2023-04-03T02:14:54;3.30;92.70
70762;DHT22;58360;0.000;0.000;2023-04-03T02:17:20;3.30;93.10
70762;DHT22;58360;0.000;0.000;2023-04-03T02:19:46;3.20;93.10
70762;DHT22;58360;0.000;0.000;2023-04-03T02:22:11;3.20;93.30
70762;DHT22;58360;0.000;0.000;2023-04-03T02:24:37;3.20;93.00
70762;DHT22;58360;0.000;0.000;2023-04-03T02:27:04;3.20;93.20
70762;DHT22;58360;0.000;0.000;2023-04-03T02:29:30;3.20;93.10
70762;DHT22;58360;0.000;0.000;2023-04-03T02:31:56;3.30;92.70
70762;DHT22;58360;0.000;0.000;2023-04-03T02:34:21;3.30;92.60
70762;DHT22;58360;0.000;0.000;2023-04-03T02:36:47;3.40;92.50
70762;DHT22;58360;0.000;0.000;2023-04-03T02:39:13;3.50;92.40
70762;DHT22;58360;0.000;0.000;2023-04-03T02:41:39;3.30;92.40
70762;DHT22;58360;0.000;0.000;2023-04-03T02:44:11;3.30;92.50
70762;DHT22;58360;0.000;0.000;2023-04-03T02:46:37;3.30;92.80
70762;DHT22;58360;0.000;0.000;2023-04-03T02:49:03;3.20;92.80
70762;DHT22;58360;0.000;0.000;2023-04-03T02:51:29;3.20;92.70
70762;DHT22;58360;0.000;0.000;2023-04-03T02:53:54;3.20;92.90
70762;DHT22;58360;0.000;0.000;2023-04-03T02:56:20;3.20;92.80
70762;DHT22;58360;0.000;0.000;2023-04-03T02:58:46;3.20;92.80
70762;DHT22;58360;0.000;0.000;2023-04-03T03:01:14;3.10;92.90
70762;DHT22;58360;0.000;0.000;2023-04-03T03:03:39;3.10;92.90
70762;DHT22;58360;0.000;0.000;2023-04-03T03:06:11;3.10;93.00
70762;DHT22;58360;0.000;0.000;2023-04-03T03:08:38;3.20;92.50
70762;DHT22;58360;0.000;0.000;2023-04-03T03:11:04;3.30;92.20
70762;DHT22;58360;0.000;0.000;2023-04-03T03:13:31;3.30;91.90
70762;DHT22;58360;0.000;0.000;2023-04-03T03:15:57;3.40;91.70
70762;DHT22;58360;0.000;0.000;2023-04-03T03:18:22;3.60;91.40
70762;DHT22;58360;0.000;0.000;2023-04-03T03:20:56;3.50;91.30
70762;DHT22;58360;0.000;0.000;2023-04-03T03:23:23;3.60;91.20
70762;DHT22;58360;0.000;0.000;2023-04-03T03:25:58;3.60;91.00
70762;DHT22;58360;0.000;0.000;2023-04-03T03:28:24;3.60;90.90
70762;DHT22;58360;0.000;0.000;2023-04-03T03:30:50;3.70;90.80
70762;DHT22;58360;0.000;0.000;2023-04-03T03:33:17;3.60;90.80
70762;DHT22;58360;0.000;0.000;2023-04-03T03:35:42;3.50;90.90
70762;DHT22;58360;0.000;0.000;2023-04-03T03:38:08;3.40;91.00
70762;DHT22;58360;0.000;0.000;2023-04-03T03:40:34;3.30;91.20
70762;DHT22;58360;0.000;0.000;2023-04-03T03:43:00;3.20;91.50
70762;DHT22;58360;0.000;0.000;2023-04-03T03:45:25;3.20;91.50
70762;DHT22;58360;0.000;0.000;2023-04-03T03:47:51;3.30;91.60
70762;DHT22;58360;0.000;0.000;2023-04-03T03:50:17;3.10;92.00
70762;DHT22;58360;0.000;0.000;2023-04-03T03:52:43;3.10;92.40
70762;DHT22;58360;0.000;0.000;2023-04-03T03:55:08;3.10;92.40
70762;DHT22;58360;0.000;0.000;2023-04-03T03:57:34;3.00;92.30
70762;DHT22;58360;0.000;0.000;2023-04-03T04:00:00;3.10;92.00
70762;DHT22;58360;0.000;0.000;2023-04-03T04:02:26;3.20;92.00
70762;DHT22;58360;0.000;0.000;2023-04-03T04:04:52;3.10;92.00
70762;DHT22;58360;0.000;0.000;2023-04-03T04:07:17;3.10;92.10
70762;DHT22;58360;0.000;0.000;2023-04-03T04:09:43;3.10;91.90
70762;DHT22;58360;0.000;0.000;2023-04-03T04:12:09;3.20;91.80
70762;DHT22;58360;0.000;0.000;2023-04-03T04:14:34;3.20;91.70
70762;DHT22;58360;0.000;0.000;2023-04-03T04:17:00;3.10;91.70
70762;DHT22;58360;0.000;0.000;2023-04-03T04:19:28;3.10;91.80
70762;DHT22;58360;0.000;0.000;2023-04-03T04:21:53;3.20;91.70
70762;DHT22;58360;0.000;0.000;2023-04-03T04:24:19;3.20;91.60
70762;DHT22;58360;0.000;0.000;2023-04-03T04:26:45;3.20;91.70
70762;DHT22;58360;0.000;0.000;2023-04-03T04:29:11;3.10;91.80
70762;DHT22;58360;0.000;0.000;2023-04-03T04:31:36;3.00;91.80
70762;DHT22;58360;0.000;0.000;2023-04-03T04:34:02;3.00;92.00
70762;DHT22;58360;0.000;0.000;2023-04-03T04:36:28;3.00;92.10
70762;DHT22;58360;0.000;0.000;2023-04-03T04:38:54;2.90;92.30
70762;DHT22;58360;0.000;0.000;2023-04-03T04:41:20;3.00;92.20
70762;DHT22;58360;0.000;0.000;2023-04-03T04:43:51;2.80;92.30
70762;DHT22;58360;0.000;0.000;2023-04-03T04:46:17;2.80;92.80
70762;DHT22;58360;0.000;0.000;2023-04-03T04:48:43;2.50;93.10
70762;DHT22;58360;0.000;0.000;2023-04-03T04:51:09;2.50;93.30
70762;DHT22;58360;0.000;0.000;2023-04-03T04:53:35;2.50;93.50
70762;DHT22;58360;0.000;0.000;2023-04-03T04:56:01;2.60;93.30
70762;DHT22;58360;0.000;0.000;2023-04-03T04:58:26;2.60;93.20
70762;DHT22;58360;0.000;0.000;2023-04-03T05:01:03;2.50;93.30
70762;DHT22;58360;0.000;0.000;2023-04-03T05:03:29;2.80;92.90
70762;DHT22;58360;0.000;0.000;2023-04-03T05:05:55;2.90;92.40
70762;DHT22;58360;0.000;0.000;2023-04-03T05:08:21;3.00;92.20
70762;DHT22;58360;0.000;0.000;2023-04-03T05:10:47;2.80;92.50
70762;DHT22;58360;0.000;0.000;2023-04-03T05:13:14;2.70;92.90
70762;DHT22;58360;0.000;0.000;2023-04-03T05:15:40;2.60;93.10
70762;DHT22;58360;0.000;0.000;2023-04-03T05:18:06;2.60;93.20
70762;DHT22;58360;0.000;0.000;2023-04-03T05:20:32;2.40;93.70
70762;DHT22;58360;0.000;0.000;2023-04-03T05:22:58;2.30;94.10
70762;DHT22;58360;0.000;0.000;2023-04-03T05:25:24;2.40;94.10
70762;DHT22;58360;0.000;0.000;2023-04-03T05:27:50;2.40;93.90
70762;DHT22;58360;0.000;0.000;2023-04-03T05:30:17;2.50;93.60
70762;DHT22;58360;0.000;0.000;2023-04-03T05:32:42;2.40;93.70
70762;DHT22;58360;0.000;0.000;2023-04-03T05:35:09;2.40;93.80
70762;DHT22;58360;0.000;0.000;2023-04-03T05:37:35;2.40;93.70
70762;DHT22;58360;0.000;0.000;2023-04-03T05:40:01;2.50;93.80
70762;DHT22;58360;0.000;0.000;2023-04-03T05:42:27;2.70;93.80
70762;DHT22;58360;0.000;0.000;2023-04-03T05:44:52;2.70;93.80
70762;DHT22;58360;0.000;0.000;2023-04-03T05:47:18;2.90;93.50
70762;DHT22;58360;0.000;0.000;2023-04-03T05:49:44;3.20;92.80
70762;DHT22;58360;0.000;0.000;2023-04-03T05:52:33;3.40;92.50
70762;DHT22;58360;0.000;0.000;2023-04-03T05:55:00;3.60;92.00
70762;DHT22;58360;0.000;0.000;2023-04-03T05:57:26;4.00;91.10
70762;DHT22;58360;0.000;0.000;2023-04-03T05:59:51;4.00;91.00
70762;DHT22;58360;0.000;0.000;2023-04-03T06:02:20;4.20;90.90
70762;DHT22;58360;0.000;0.000;2023-04-03T06:04:46;4.40;90.20
70762;DHT22;58360;0.000;0.000;2023-04-03T06:07:18;4.50;89.80
70762;DHT22;58360;0.000;0.000;2023-04-03T06:09:46;4.60;89.80
70762;DHT22;58360;0.000;0.000;2023-04-03T06:12:12;4.80;88.50
70762;DHT22;58360;0.000;0.000;2023-04-03T06:14:38;4.70;87.60
70762;DHT22;58360;0.000;0.000;2023-04-03T06:17:04;4.90;87.50
70762;DHT22;58360;0.000;0.000;2023-04-03T06:19:30;5.20;86.40
70762;DHT22;58360;0.000;0.000;2023-04-03T06:21:56;5.40;85.30
70762;DHT22;58360;0.000;0.000;2023-04-03T06:24:22;5.50;85.30
70762;DHT22;58360;0.000;0.000;2023-04-03T06:26:49;5.70;84.70
70762;DHT22;58360;0.000;0.000;2023-04-03T06:29:17;5.80;83.80
70762;DHT22;58360;0.000;0.000;2023-04-03T06:31:43;5.80;82.80
70762;DHT22;58360;0.000;0.000;2023-04-03T06:34:09;6.00;82.20
70762;DHT22;58360;0.000;0.000;2023-04-03T06:36:36;6.50;81.30
70762;DHT22;58360;0.000;0.000;2023-04-03T06:39:02;6.70;79.90
70762;DHT22;58360;0.000;0.000;2023-04-03T06:41:28;7.00;79.10
70762;DHT22;58360;0.000;0.000;2023-04-03T06:43:54;7.40;77.60
70762;DHT22;58360;0.000;0.000;2023-04-03T06:46:23;7.70;77.10
70762;DHT22;58360;0.000;0.000;2023-04-03T06:48:50;7.80;75.40
70762;DHT22;58360;0.000;0.000;2023-04-03T06:51:36;8.20;74.10
70762;DHT22;58360;0.000;0.000;2023-04-03T06:54:04;8.80;72.30
70762;DHT22;58360;0.000;0.000;2023-04-03T06:56:34;9.30;70.20
70762;DHT22;58360;0.000;0.000;2023-04-03T06:59:00;9.30;69.50
70762;DHT22;58360;0.000;0.000;2023-04-03T07:01:28;9.20;70.00
70762;DHT22;58360;0.000;0.000;2023-04-03T07:03:56;9.30;69.70
70762;DHT22;58360;0.000;0.000;2023-04-03T07:06:22;9.50;68.20
70762;DHT22;58360;0.000;0.000;2023-04-03T07:08:48;9.90;67.20
70762;DHT22;58360;0.000;0.000;2023-04-03T07:11:15;10.00;66.90
70762;DHT22;58360;0.000;0.000;2023-04-03T07:13:41;9.60;66.50
70762;DHT22;58360;0.000;0.000;2023-04-03T07:16:08;9.60;66.80
70762;DHT22;58360;0.000;0.000;2023-04-03T07:18:34;9.80;67.10
70762;DHT22;58360;0.000;0.000;2023-04-03T07:21:01;10.30;64.30
70762;DHT22;58360;0.000;0.000;2023-04-03T07:23:27;10.20;63.90
70762;DHT22;58360;0.000;0.000;2023-04-03T07:25:53;10.20;64.30
70762;DHT22;58360;0.000;0.000;2023-04-03T07:28:20;10.20;64.10
70762;DHT22;58360;0.000;0.000;2023-04-03T07:31:10;10.20;65.60
70762;DHT22;58360;0.000;0.000;2023-04-03T07:33:38;10.40;65.20
70762;DHT22;58360;0.000;0.000;2023-04-03T07:36:04;11.80;61.80
70762;DHT22;58360;0.000;0.000;2023-04-03T07:38:34;11.70;60.00
70762;DHT22;58360;0.000;0.000;2023-04-03T07:41:07;11.90;59.50
70762;DHT22;58360;0.000;0.000;2023-04-03T07:43:36;12.00;57.80
70762;DHT22;58360;0.000;0.000;2023-04-03T07:46:04;11.60;58.70
70762;DHT22;58360;0.000;0.000;2023-04-03T07:48:30;12.10;58.90
70762;DHT22;58360;0.000;0.000;2023-04-03T07:51:00;12.50;56.00
70762;DHT22;58360;0.000;0.000;2023-04-03T07:53:26;12.40;55.00
70762;DHT22;58360;0.000;0.000;2023-04-03T07:55:51;12.10;56.30
70762;DHT22;58360;0.000;0.000;2023-04-03T07:58:21;12.10;56.20
70762;DHT22;58360;0.000;0.000;2023-04-03T08:00:47;12.50;54.70
70762;DHT22;58360;0.000;0.000;2023-04-03T08:03:14;12.80;53.40
70762;DHT22;58360;0.000;0.000;2023-04-03T08:05:43;12.50;54.20
70762;DHT22;58360;0.000;0.000;2023-04-03T08:08:11;12.80;53.60
70762;DHT22;58360;0.000;0.000;2023-04-03T08:10:37;12.70;52.80
70762;DHT22;58360;0.000;0.000;2023-04-03T08:13:03;12.50;54.00
70762;DHT22;58360;0.000;0.000;2023-04-03T08:15:30;12.70;53.70
70762;DHT22;58360;0.000;0.000;2023-04-03T08:17:57;12.70;55.20
70762;DHT22;58360;0.000;0.000;2023-04-03T08:20:22;13.20;52.80
70762;DHT22;58360;0.000;0.000;2023-04-03T08:22:48;13.30;52.60
70762;DHT22;58360;0.000;0.000;2023-04-03T08:25:14;13.80;52.20
70762;DHT22;58360;0.000;0.000;2023-04-03T08:27:40;14.40;49.70
70762;DHT22;58360;0.000;0.000;2023-04-03T08:30:06;14.30;48.60
70762;DHT22;58360;0.000;0.000;2023-04-03T08:32:33;14.60;48.10
70762;DHT22;58360;0.000;0.000;2023-04-03T08:35:00;14.40;49.40
70762;DHT22;58360;0.000;0.000;2023-04-03T08:37:25;14.80;47.10
70762;DHT22;58360;0.000;0.000;2023-04-03T08:39:52;14.80;49.40
70762;DHT22;58360;0.000;0.000;2023-04-03T08:42:42;14.80;49.30
70762;DHT22;58360;0.000;0.000;2023-04-03T08:45:27;15.20;47.00
70762;DHT22;58360;0.000;0.000;2023-04-03T08:48:23;15.30;46.00
70762;DHT22;58360;0.000;0.000;2023-04-03T08:50:54;15.10;46.20
70762;DHT22;58360;0.000;0.000;2023-04-03T08:53:32;15.90;44.30
70762;DHT22;58360;0.000;0.000;2023-04-03T08:56:04;16.10;43.70
70762;DHT22;58360;0.000;0.000;2023-04-03T08:58:50;16.10;43.60
70762;DHT22;58360;0.000;0.000;2023-04-03T09:01:47;15.70;44.00
70762;DHT22;58360;0.000;0.000;2023-04-03T09:04:15;16.20;43.00
70762;DHT22;58360;0.000;0.000;2023-04-03T09:06:48;16.30;42.20
70762;DHT22;58360;0.000;0.000;2023-04-03T09:14:49;16.70;41.90
70762;DHT22;58360;0.000;0.000;2023-04-03T09:17:36;17.90;41.80
70762;DHT22;58360;0.000;0.000;2023-04-03T09:22:53;17.70;39.70
70762;DHT22;58360;0.000;0.000;2023-04-03T09:25:36;17.50;40.20
70762;DHT22;58360;0.000;0.000;2023-04-03T09:28:03;17.10;41.10
70762;DHT22;58360;0.000;0.000;2023-04-03T09:30:35;17.30;41.80
70762;DHT22;58360;0.000;0.000;2023-04-03T09:33:01;18.00;39.80
70762;DHT22;58360;0.000;0.000;2023-04-03T09:35:27;17.80;40.00
70762;DHT22;58360;0.000;0.000;2023-04-03T09:38:21;17.70;39.40
70762;DHT22;58360;0.000;0.000;2023-04-03T09:41:13;18.10;38.80
70762;DHT22;58360;0.000;0.000;2023-04-03T09:43:37;18.00;39.50
70762;DHT22;58360;0.000;0.000;2023-04-03T09:46:37;18.70;39.30
70762;DHT22;58360;0.000;0.000;2023-04-03T09:49:05;18.90;39.40
70762;DHT22;58360;0.000;0.000;2023-04-03T09:51:32;19.40;37.00
70762;DHT22;58360;0.000;0.000;2023-04-03T09:53:58;19.20;36.90
70762;DHT22;58360;0.000;0.000;2023-04-03T09:56:27;17.90;38.70
70762;DHT22;58360;0.000;0.000;2023-04-03T10:04:12;20.50;36.10
70762;DHT22;58360;0.000;0.000;2023-04-03T10:06:54;19.60;36.30
70762;DHT22;58360;0.000;0.000;2023-04-03T10:09:23;20.30;34.40
70762;DHT22;58360;0.000;0.000;2023-04-03T10:12:10;19.90;34.80
70762;DHT22;58360;0.000;0.000;2023-04-03T10:15:01;19.90;34.30
70762;DHT22;58360;0.000;0.000;2023-04-03T10:20:18;18.70;34.10
70762;DHT22;58360;0.000;0.000;2023-04-03T10:26:17;19.50;33.60
70762;DHT22;58360;0.000;0.000;2023-04-03T10:31:24;19.80;33.70
70762;DHT22;58360;0.000;0.000;2023-04-03T10:42:44;19.80;34.50
70762;DHT22;58360;0.000;0.000;2023-04-03T10:45:24;20.30;34.70
70762;DHT22;58360;0.000;0.000;2023-04-03T10:55:43;19.80;30.90
70762;DHT22;58360;0.000;0.000;2023-04-03T10:58:24;19.20;32.40
70762;DHT22;58360;0.000;0.000;2023-04-03T11:00:53;19.10;31.30
70762;DHT22;58360;0.000;0.000;2023-04-03T11:03:39;19.10;29.90
70762;DHT22;58360;0.000;0.000;2023-04-03T11:06:12;18.80;31.70
70762;DHT22;58360;0.000;0.000;2023-04-03T11:09:15;19.00;31.00
70762;DHT22;58360;0.000;0.000;2023-04-03T11:11:38;18.50;31.60
70762;DHT22;58360;0.000;0.000;2023-04-03T11:17:08;18.40;32.10
70762;DHT22;58360;0.000;0.000;2023-04-03T11:22:31;19.10;29.00
70762;DHT22;58360;0.000;0.000;2023-04-03T11:27:47;17.50;30.30
70762;DHT22;58360;0.000;0.000;2023-04-03T11:30:30;17.20;31.60
70762;DHT22;58360;0.000;0.000;2023-04-03T11:35:36;18.50;29.60
70762;DHT22;58360;0.000;0.000;2023-04-03T11:38:04;18.70;29.40
70762;DHT22;58360;0.000;0.000;2023-04-03T11:40:34;18.20;29.20
70762;DHT22;58360;0.000;0.000;2023-04-03T11:43:16;18.00;29.80
70762;DHT22;58360;0.000;0.000;2023-04-03T11:50:47;18.40;29.40
70762;DHT22;58360;0.000;0.000;2023-04-03T11:58:30;18.30;28.90
70762;DHT22;58360;0.000;0.000;2023-04-03T12:01:00;18.20;30.00
70762;DHT22;58360;0.000;0.000;2023-04-03T12:24:30;18.10;30.00
70762;DHT22;58360;0.000;0.000;2023-04-03T12:48:34;17.90;29.80
70762;DHT22;58360;0.000;0.000;2023-04-03T12:51:03;18.30;29.30
70762;DHT22;58360;0.000;0.000;2023-04-03T12:53:35;17.40;28.80
70762;DHT22;58360;0.000;0.000;2023-04-03T12:58:49;18.00;29.50
70762;DHT22;58360;0.000;0.000;2023-04-03T13:01:21;17.40;29.10
70762;DHT22;58360;0.000;0.000;2023-04-03T13:03:52;17.30;29.80
70762;DHT22;58360;0.000;0.000;2023-04-03T13:06:27;17.80;30.00
70762;DHT22;58360;0.000;0.000;2023-04-03T13:08:56;17.70;30.80
70762;DHT22;58360;0.000;0.000;2023-04-03T13:11:30;17.60;29.20
70762;DHT22;58360;0.000;0.000;2023-04-03T13:13:57;17.70;29.20
70762;DHT22;58360;0.000;0.000;2023-04-03T13:16:22;17.90;29.90
70762;DHT22;58360;0.000;0.000;2023-04-03T13:18:53;17.80;29.90
70762;DHT22;58360;0.000;0.000;2023-04-03T13:21:24;17.50;30.10
70762;DHT22;58360;0.000;0.000;2023-04-03T13:23:57;17.30;31.30
70762;DHT22;58360;0.000;0.000;2023-04-03T13:26:26;18.10;30.30
70762;DHT22;58360;0.000;0.000;2023-04-03T13:28:54;17.50;30.90
70762;DHT22;58360;0.000;0.000;2023-04-03T13:31:26;17.60;30.70
70762;DHT22;58360;0.000;0.000;2023-04-03T13:34:03;17.70;30.00
70762;DHT22;58360;0.000;0.000;2023-04-03T13:36:34;17.20;30.40
70762;DHT22;58360;0.000;0.000;2023-04-03T13:39:24;16.90;30.60
70762;DHT22;58360;0.000;0.000;2023-04-03T13:41:50;16.90;30.80
70762;DHT22;58360;0.000;0.000;2023-04-03T13:44:17;16.90;29.50
70762;DHT22;58360;0.000;0.000;2023-04-03T13:46:43;17.50;30.00
70762;DHT22;58360;0.000;0.000;2023-04-03T13:51:53;17.10;31.80
70762;DHT22;58360;0.000;0.000;2023-04-03T13:54:39;17.20;31.50
70762;DHT22;58360;0.000;0.000;2023-04-03T13:57:14;17.00;30.40
70762;DHT22;58360;0.000;0.000;2023-04-03T13:59:39;16.80;30.00
70762;DHT22;58360;0.000;0.000;2023-04-03T14:07:05;17.10;30.80
70762;DHT22;58360;0.000;0.000;2023-04-03T14:09:31;17.30;30.00
70762;DHT22;58360;0.000;0.000;2023-04-03T14:12:07;17.60;30.20
70762;DHT22;58360;0.000;0.000;2023-04-03T14:14:35;17.20;30.10
70762;DHT22;58360;0.000;0.000;2023-04-03T14:17:17;17.10;29.80
70762;DHT22;58360;0.000;0.000;2023-04-03T14:19:43;16.90;31.30
70762;DHT22;58360;0.000;0.000;2023-04-03T14:22:31;17.10;31.50
70762;DHT22;58360;0.000;0.000;2023-04-03T14:24:57;16.90;30.70
70762;DHT22;58360;0.000;0.000;2023-04-03T14:27:26;16.70;32.20
70762;DHT22;58360;0.000;0.000;2023-04-03T14:29:54;16.50;30.90
70762;DHT22;58360;0.000;0.000;2023-04-03T14:32:22;16.70;31.10
70762;DHT22;58360;0.000;0.000;2023-04-03T14:34:49;16.50;31.40
70762;DHT22;58360;0.000;0.000;2023-04-03T14:37:20;16.40;30.00
70762;DHT22;58360;0.000;0.000;2023-04-03T14:39:46;16.10;30.50
70762;DHT22;58360;0.000;0.000;2023-04-03T14:42:14;16.10;31.10
70762;DHT22;58360;0.000;0.000;2023-04-03T14:44:41;16.20;30.40
70762;DHT22;58360;0.000;0.000;2023-04-03T14:47:13;16.10;31.20
70762;DHT22;58360;0.000;0.000;2023-04-03T14:49:43;16.30;31.00
70762;DHT22;58360;0.000;0.000;2023-04-03T14:52:32;16.40;31.80
70762;DHT22;58360;0.000;0.000;2023-04-03T14:54:59;16.00;31.90
70762;DHT22;58360;0.000;0.000;2023-04-03T14:57:27;16.30;30.90
70762;DHT22;58360;0.000;0.000;2023-04-03T14:59:53;16.10;30.60
70762;DHT22;58360;0.000;0.000;2023-04-03T15:02:34;16.60;30.70
70762;DHT22;58360;0.000;0.000;2023-04-03T15:05:01;16.60;31.10
70762;DHT22;58360;0.000;0.000;2023-04-03T15:07:31;16.30;29.90
70762;DHT22;58360;0.000;0.000;2023-04-03T15:09:59;15.70;29.70
70762;DHT22;58360;0.000;0.000;2023-04-03T15:12:25;15.60;30.00
70762;DHT22;58360;0.000;0.000;2023-04-03T15:14:50;15.60;30.60
70762;DHT22;58360;0.000;0.000;2023-04-03T15:17:21;15.30;30.90
70762;DHT22;58360;0.000;0.000;2023-04-03T15:19:48;15.50;30.70
70762;DHT22;58360;0.000;0.000;2023-04-03T15:22:19;15.30;30.90
70762;DHT22;58360;0.000;0.000;2023-04-03T15:24:45;15.20;32.20
70762;DHT22;58360;0.000;0.000;2023-04-03T15:27:11;15.30;31.80
70762;DHT22;58360;0.000;0.000;2023-04-03T15:29:38;15.30;32.90
70762;DHT22;58360;0.000;0.000;2023-04-03T15:32:05;15.40;36.40
70762;DHT22;58360;0.000;0.000;2023-04-03T15:34:31;15.30;33.20
70762;DHT22;58360;0.000;0.000;2023-04-03T15:36:57;15.50;33.60
70762;DHT22;58360;0.000;0.000;2023-04-03T15:39:24;15.50;33.50
70762;DHT22;58360;0.000;0.000;2023-04-03T15:41:51;15.50;32.30
70762;DHT22;58360;0.000;0.000;2023-04-03T15:44:18;15.30;33.10
70762;DHT22;58360;0.000;0.000;2023-04-03T15:46:44;15.20;32.00
70762;DHT22;58360;0.000;0.000;2023-04-03T15:49:11;14.70;33.50
70762;DHT22;58360;0.000;0.000;2023-04-03T15:51:37;14.90;34.00
70762;DHT22;58360;0.000;0.000;2023-04-03T15:54:03;14.70;34.60
70762;DHT22;58360;0.000;0.000;2023-04-03T15:56:29;14.50;35.90
70762;DHT22;58360;0.000;0.000;2023-04-03T15:58:54;14.40;34.00
70762;DHT22;58360;0.000;0.000;2023-04-03T16:01:20;14.50;36.80
70762;DHT22;58360;0.000;0.000;2023-04-03T16:03:46;14.50;36.40
70762;DHT22;58360;0.000;0.000;2023-04-03T16:06:14;14.50;35.00
70762;DHT22;58360;0.000;0.000;2023-04-03T16:08:41;14.50;35.20
70762;DHT22;58360;0.000;0.000;2023-04-03T16:11:06;14.30;35.20
70762;DHT22;58360;0.000;0.000;2023-04-03T16:13:32;14.30;35.60
70762;DHT22;58360;0.000;0.000;2023-04-03T16:15:59;14.00;35.70
70762;DHT22;58360;0.000;0.000;2023-04-03T16:18:26;14.30;36.50
70762;DHT22;58360;0.000;0.000;2023-04-03T16:20:52;14.20;35.00
70762;DHT22;58360;0.000;0.000;2023-04-03T16:23:17;14.10;35.80
70762;DHT22;58360;0.000;0.000;2023-04-03T16:25:43;14.10;36.20
70762;DHT22;58360;0.000;0.000;2023-04-03T16:28:12;14.10;35.90
70762;DHT22;58360;0.000;0.000;2023-04-03T16:30:42;13.80;37.10
70762;DHT22;58360;0.000;0.000;2023-04-03T16:33:09;13.80;39.40
70762;DHT22;58360;0.000;0.000;2023-04-03T16:35:35;13.80;36.70
70762;DHT22;58360;0.000;0.000;2023-04-03T16:38:01;13.70;36.30
70762;DHT22;58360;0.000;0.000;2023-04-03T16:40:26;13.30;37.40
70762;DHT22;58360;0.000;0.000;2023-04-03T16:42:52;12.90;37.90
70762;DHT22;58360;0.000;0.000;2023-04-03T16:45:18;12.90;38.50
70762;DHT22;58360;0.000;0.000;2023-04-03T16:47:43;13.00;37.80
70762;DHT22;58360;0.000;0.000;2023-04-03T16:50:09;13.00;39.30
70762;DHT22;58360;0.000;0.000;2023-04-03T16:52:35;13.00;37.50
70762;DHT22;58360;0.000;0.000;2023-04-03T16:55:01;12.60;38.40
70762;DHT22;58360;0.000;0.000;2023-04-03T16:57:27;12.30;40.90
70762;DHT22;58360;0.000;0.000;2023-04-03T16:59:53;12.00;40.30
70762;DHT22;58360;0.000;0.000;2023-04-03T17:02:20;12.00;40.00
70762;DHT22;58360;0.000;0.000;2023-04-03T17:04:46;11.90;40.50
70762;DHT22;58360;0.000;0.000;2023-04-03T17:07:12;11.80;40.30
70762;DHT22;58360;0.000;0.000;2023-04-03T17:09:38;11.60;41.50
70762;DHT22;58360;0.000;0.000;2023-04-03T17:12:04;11.60;43.00
70762;DHT22;58360;0.000;0.000;2023-04-03T17:14:29;11.40;41.50
70762;DHT22;58360;0.000;0.000;2023-04-03T17:16:55;11.20;42.00
70762;DHT22;58360;0.000;0.000;2023-04-03T17:19:21;11.30;42.80
70762;DHT22;58360;0.000;0.000;2023-04-03T17:21:48;11.30;41.40
70762;DHT22;58360;0.000;0.000;2023-04-03T17:24:14;11.20;40.90
70762;DHT22;58360;0.000;0.000;2023-04-03T17:26:41;11.10;42.80
70762;DHT22;58360;0.000;0.000;2023-04-03T17:29:07;11.20;42.20
70762;DHT22;58360;0.000;0.000;2023-04-03T17:31:33;11.00;43.00
70762;DHT22;58360;0.000;0.000;2023-04-03T17:33:58;11.00;42.70
70762;DHT22;58360;0.000;0.000;2023-04-03T17:36:32;11.00;42.50
70762;DHT22;58360;0.000;0.000;2023-04-03T17:38:58;11.00;43.40
70762;DHT22;58360;0.000;0.000;2023-04-03T17:41:24;11.00;43.30
70762;DHT22;58360;0.000;0.000;2023-04-03T17:43:50;11.00;43.20
70762;DHT22;58360;0.000;0.000;2023-04-03T17:46:17;11.00;43.80
70762;DHT22;58360;0.000;0.000;2023-04-03T17:48:43;11.00;42.90
70762;DHT22;58360;0.000;0.000;2023-04-03T17:51:14;10.90;42.90
70762;DHT22;58360;0.000;0.000;2023-04-03T17:53:41;10.60;44.00
70762;DHT22;58360;0.000;0.000;2023-04-03T17:56:14;10.50;45.50
70762;DHT22;58360;0.000;0.000;2023-04-03T17:58:41;10.50;45.40
70762;DHT22;58360;0.000;0.000;2023-04-03T18:01:16;10.40;44.30
70762;DHT22;58360;0.000;0.000;2023-04-03T18:03:43;10.30;45.10
70762;DHT22;58360;0.000;0.000;2023-04-03T18:06:14;10.40;45.10
70762;DHT22;58360;0.000;0.000;2023-04-03T18:08:48;10.30;44.80